createdAt,value
2019-06-20T00:00:52.749Z,7.33
2019-06-20T00:03:25.964Z,8.10
2019-06-20T00:05:59.598Z,7.00
2019-06-20T00:08:33.574Z,7.60
2019-06-20T00:11:06.629Z,6.67
2019-06-20T00:13:40.506Z,6.50
2019-06-20T00:16:13.688Z,5.87
2019-06-20T00:18:49.916Z,6.83
2019-06-20T00:21:23.528Z,5.93
2019-06-20T00:24:01.043Z,6.30
2019-06-20T00:26:34.478Z,6.00
2019-06-20T00:29:07.825Z,6.47
2019-06-20T00:31:41.949Z,7.17
2019-06-20T00:34:15.962Z,6.30
2019-06-20T00:36:51.260Z,6.07
2019-06-20T00:39:24.206Z,6.03
2019-06-20T00:41:57.309Z,6.30
2019-06-20T00:44:31.267Z,5.77
2019-06-20T00:47:04.609Z,5.93
2019-06-20T00:49:37.929Z,6.17
2019-06-20T00:52:11.366Z,6.10
2019-06-20T00:54:44.228Z,6.63
2019-06-20T00:57:17.871Z,7.63
2019-06-20T00:59:58.840Z,8.13
2019-06-20T01:02:32.516Z,8.40
2019-06-20T01:05:06.376Z,7.57
2019-06-20T01:07:39.646Z,7.60
2019-06-20T01:10:13.484Z,8.23
2019-06-20T01:12:51.061Z,7.70
2019-06-20T01:15:24.898Z,8.20
2019-06-20T01:18:02.558Z,8.30
2019-06-20T01:20:35.801Z,8.87
2019-06-20T01:23:10.155Z,8.33
2019-06-20T01:25:45.316Z,9.10
2019-06-20T01:28:18.419Z,6.80
2019-06-20T01:30:52.107Z,6.97
2019-06-20T01:33:25.671Z,6.27
2019-06-20T01:35:59.001Z,6.23
2019-06-20T01:38:32.740Z,6.67
2019-06-20T01:41:06.327Z,6.57
2019-06-20T01:43:49.988Z,6.33
2019-06-20T01:46:14.816Z,5.67
2019-06-20T01:48:47.760Z,6.30
2019-06-20T01:51:20.800Z,6.40
2019-06-20T01:53:54.115Z,6.10
2019-06-20T01:56:27.163Z,6.97
2019-06-20T01:59:00.813Z,7.40
2019-06-20T02:01:33.983Z,7.70
2019-06-20T02:04:06.789Z,8.40
2019-06-20T02:06:39.993Z,8.80
2019-06-20T02:09:13.186Z,9.00
2019-06-20T02:11:46.253Z,8.80
2019-06-20T02:14:19.051Z,8.90
2019-06-20T02:16:52.347Z,9.27
2019-06-20T02:19:25.576Z,8.90
2019-06-20T02:21:58.768Z,9.20
2019-06-20T02:24:31.785Z,9.03
2019-06-20T02:27:07.258Z,9.60
2019-06-20T02:29:40.483Z,9.30
2019-06-20T02:32:13.654Z,9.20
2019-06-20T02:34:46.753Z,7.30
2019-06-20T02:37:19.483Z,16.67
2019-06-20T02:39:52.942Z,12.90
2019-06-20T02:42:26.135Z,9.70
2019-06-20T02:44:58.826Z,7.23
2019-06-20T02:47:31.823Z,7.67
2019-06-20T02:50:06.819Z,6.87
2019-06-20T02:52:40.990Z,7.10
2019-06-20T02:55:15.453Z,7.60
2019-06-20T02:57:48.912Z,7.70
2019-06-20T03:00:54.427Z,7.60
2019-06-20T03:03:28.242Z,7.13
2019-06-20T03:06:01.228Z,7.47
2019-06-20T03:08:34.267Z,7.33
2019-06-20T03:11:07.665Z,7.43
2019-06-20T03:13:41.363Z,7.30
2019-06-20T03:16:15.153Z,7.23
2019-06-20T03:18:48.605Z,6.53
2019-06-20T03:21:22.002Z,7.40
2019-06-20T03:23:56.135Z,6.87
2019-06-20T03:26:29.494Z,6.97
2019-06-20T03:29:02.880Z,7.20
2019-06-20T03:31:36.669Z,7.50
2019-06-20T03:34:10.717Z,7.20
2019-06-20T03:36:44.588Z,11.60
2019-06-20T03:39:18.379Z,12.07
2019-06-20T03:41:53.388Z,10.80
2019-06-20T03:44:27.337Z,9.63
2019-06-20T03:47:01.142Z,9.53
2019-06-20T03:49:35.149Z,10.30
2019-06-20T03:52:08.423Z,9.50
2019-06-20T03:54:41.998Z,7.97
2019-06-20T03:57:15.839Z,8.07
2019-06-20T03:59:51.031Z,7.73
2019-06-20T04:02:25.043Z,7.40
2019-06-20T04:04:58.427Z,7.97
2019-06-20T04:07:32.105Z,7.70
2019-06-20T04:10:06.406Z,7.90
2019-06-20T04:12:39.787Z,7.20
2019-06-20T04:15:19.204Z,7.13
2019-06-20T04:17:47.939Z,7.97
2019-06-20T04:20:22.823Z,7.83
2019-06-20T04:22:55.680Z,7.77
2019-06-20T04:25:29.286Z,8.33
2019-06-20T04:28:02.712Z,8.10
2019-06-20T04:30:38.115Z,7.93
2019-06-20T04:33:12.588Z,7.73
2019-06-20T04:35:45.722Z,7.70
2019-06-20T04:38:19.323Z,8.57
2019-06-20T04:40:53.299Z,8.33
2019-06-20T04:43:26.868Z,7.67
2019-06-20T04:46:22.398Z,6.83
2019-06-20T04:48:56.261Z,7.50
2019-06-20T04:51:29.908Z,7.37
2019-06-20T04:54:04.350Z,8.50
2019-06-20T04:56:38.681Z,8.70
2019-06-20T04:59:11.916Z,7.97
2019-06-20T05:01:45.251Z,8.20
2019-06-20T05:04:19.048Z,8.37
2019-06-20T05:06:57.480Z,8.03
2019-06-20T05:09:32.191Z,8.50
2019-06-20T05:12:06.433Z,7.77
2019-06-20T05:14:39.742Z,8.13
2019-06-20T05:17:13.885Z,8.27
2019-06-20T05:19:48.658Z,8.23
2019-06-20T05:22:22.293Z,7.77
2019-06-20T05:24:55.830Z,8.17
2019-06-20T05:27:28.899Z,8.40
2019-06-20T05:30:02.701Z,8.27
2019-06-20T05:32:39.002Z,7.97
2019-06-20T05:35:13.086Z,7.43
2019-06-20T05:37:46.687Z,8.57
2019-06-20T05:40:20.636Z,8.40
2019-06-20T05:42:53.958Z,7.67
2019-06-20T05:45:27.400Z,8.40
2019-06-20T05:48:00.870Z,8.23
2019-06-20T05:50:35.024Z,7.40
2019-06-20T05:53:08.610Z,7.77
2019-06-20T05:55:44.298Z,9.10
2019-06-20T05:58:18.014Z,8.20
2019-06-20T06:00:51.997Z,7.47
2019-06-20T06:03:26.158Z,7.53
2019-06-20T06:06:00.124Z,7.70
2019-06-20T06:08:34.053Z,7.20
2019-06-20T06:11:07.784Z,7.47
2019-06-20T06:13:41.827Z,8.10
2019-06-20T06:16:25.744Z,7.27
2019-06-20T06:18:51.392Z,7.70
2019-06-20T06:21:26.215Z,7.50
2019-06-20T06:23:59.744Z,7.20
2019-06-20T06:26:33.102Z,7.47
2019-06-20T06:29:07.157Z,7.57
2019-06-20T06:31:41.827Z,7.23
2019-06-20T06:34:16.726Z,6.97
2019-06-20T06:36:50.811Z,7.50
2019-06-20T06:39:24.719Z,8.30
2019-06-20T06:41:59.406Z,7.20
2019-06-20T06:44:35.120Z,7.40
2019-06-20T06:47:08.670Z,7.00
2019-06-20T06:49:42.377Z,7.00
2019-06-20T06:52:15.863Z,7.70
2019-06-20T06:54:49.322Z,7.33
2019-06-20T06:57:23.442Z,7.47
2019-06-20T06:59:57.190Z,8.70
2019-06-20T07:02:30.355Z,8.40
2019-06-20T07:05:03.358Z,7.80
2019-06-20T07:07:37.380Z,7.50
2019-06-20T07:10:12.096Z,6.97
2019-06-20T07:12:45.670Z,7.33
2019-06-20T07:15:21.601Z,8.47
2019-06-20T07:17:55.909Z,8.83
2019-06-20T07:20:29.547Z,9.30
2019-06-20T07:23:29.251Z,8.50
2019-06-20T07:26:05.340Z,8.20
2019-06-20T07:28:39.173Z,8.07
2019-06-20T07:31:13.516Z,8.40
2019-06-20T07:33:46.837Z,7.90
2019-06-20T07:36:21.152Z,7.30
2019-06-20T07:38:55.029Z,8.47
2019-06-20T07:41:32.246Z,7.20
2019-06-20T07:44:05.427Z,7.63
2019-06-20T07:46:39.528Z,6.97
2019-06-20T07:49:13.402Z,7.40
2019-06-20T07:51:47.196Z,7.17
2019-06-20T07:54:21.313Z,6.50
2019-06-20T07:56:55.165Z,6.50
2019-06-20T07:59:29.670Z,6.83
2019-06-20T08:02:03.707Z,8.10
2019-06-20T08:04:38.190Z,6.50
2019-06-20T08:07:11.990Z,6.10
2019-06-20T08:09:46.692Z,5.77
2019-06-20T08:12:21.015Z,6.77
2019-06-20T08:14:54.951Z,6.03
2019-06-20T08:17:35.367Z,5.07
2019-06-20T08:20:08.094Z,5.67
2019-06-20T08:22:43.960Z,5.47
2019-06-20T08:25:20.545Z,5.23
2019-06-20T08:27:55.988Z,4.97
2019-06-20T08:30:32.314Z,5.20
2019-06-20T08:33:11.727Z,5.17
2019-06-20T08:35:45.553Z,4.47
2019-06-20T08:38:19.223Z,4.30
2019-06-20T08:40:53.338Z,4.30
2019-06-20T08:43:27.785Z,4.37
2019-06-20T08:46:01.798Z,3.87
2019-06-20T08:48:36.209Z,3.83
2019-06-20T08:51:10.071Z,3.90
2019-06-20T08:53:45.060Z,5.17
2019-06-20T08:56:18.943Z,3.60
2019-06-20T08:58:52.605Z,4.20
2019-06-20T09:01:26.384Z,5.40
2019-06-20T09:04:00.338Z,4.27
2019-06-20T09:06:34.370Z,3.70
2019-06-20T09:09:10.638Z,5.20
2019-06-20T09:11:45.223Z,4.40
2019-06-20T09:14:20.808Z,4.50
2019-06-20T09:16:56.434Z,4.40
2019-06-20T09:19:32.056Z,4.40
2019-06-20T09:22:05.943Z,4.30
2019-06-20T09:24:42.813Z,4.70
2019-06-20T09:27:16.306Z,4.30
2019-06-20T09:29:50.009Z,4.47
2019-06-20T09:32:25.546Z,4.67
2019-06-20T09:34:59.714Z,3.17
2019-06-20T09:37:33.715Z,3.67
2019-06-20T09:40:08.208Z,4.13
2019-06-20T09:42:42.588Z,4.53
2019-06-20T09:45:17.875Z,3.10
2019-06-20T09:47:53.532Z,3.97
2019-06-20T09:50:30.146Z,3.70
2019-06-20T09:53:04.788Z,3.53
2019-06-20T09:55:39.781Z,3.60
2019-06-20T09:58:18.080Z,4.23
2019-06-20T10:00:55.032Z,4.20
2019-06-20T10:03:35.133Z,4.17
2019-06-20T10:06:14.242Z,4.10
2019-06-20T10:08:50.090Z,3.97
2019-06-20T10:11:25.467Z,4.03
2019-06-20T10:14:01.235Z,3.90
2019-06-20T10:16:45.398Z,4.43
2019-06-20T10:19:13.461Z,4.20
2019-06-20T10:21:51.814Z,4.80
2019-06-20T10:24:25.968Z,4.37
2019-06-20T10:27:00.478Z,4.40
2019-06-20T10:29:34.482Z,4.37
2019-06-20T10:32:08.367Z,4.53
2019-06-20T10:34:41.920Z,4.27
2019-06-20T10:37:16.641Z,4.00
2019-06-20T10:39:52.105Z,4.40
2019-06-20T10:42:25.809Z,3.87
2019-06-20T10:45:01.248Z,3.77
2019-06-20T10:47:36.861Z,3.80
2019-06-20T10:50:15.738Z,4.27
2019-06-20T10:52:51.741Z,4.43
2019-06-20T10:55:28.590Z,3.80
2019-06-20T10:58:04.131Z,3.93
2019-06-20T11:00:39.841Z,4.07
2019-06-20T11:03:18.597Z,3.87
2019-06-20T11:06:04.955Z,3.70
2019-06-20T11:08:41.791Z,3.37
2019-06-20T11:11:17.605Z,3.30
2019-06-20T11:13:57.564Z,3.00
2019-06-20T11:16:31.958Z,3.20
2019-06-20T11:19:09.289Z,3.60
2019-06-20T11:21:48.211Z,3.77
2019-06-20T11:24:23.211Z,3.40
2019-06-20T11:26:57.610Z,3.13
2019-06-20T11:29:32.939Z,3.07
2019-06-20T11:32:07.238Z,2.87
2019-06-20T11:34:42.571Z,4.33
2019-06-20T11:37:16.293Z,3.40
2019-06-20T11:39:51.321Z,3.43
2019-06-20T11:42:26.407Z,3.10
2019-06-20T11:45:03.004Z,2.60
2019-06-20T11:47:38.279Z,3.30
2019-06-20T11:50:12.810Z,3.37
2019-06-20T11:52:47.511Z,3.03
2019-06-20T11:55:23.651Z,3.50
2019-06-20T11:57:58.394Z,3.00
2019-06-20T12:00:32.424Z,3.40
2019-06-20T12:03:11.230Z,3.03
2019-06-20T12:05:47.337Z,3.17
2019-06-20T12:08:22.256Z,3.30
2019-06-20T12:10:57.929Z,3.20
2019-06-20T12:13:34.631Z,2.80
2019-06-20T12:16:09.834Z,3.17
2019-06-20T12:18:45.187Z,3.00
2019-06-20T12:21:19.943Z,2.90
2019-06-20T12:23:53.426Z,2.83
2019-06-20T12:26:28.593Z,3.30
2019-06-20T12:29:07.578Z,3.20
2019-06-20T12:31:43.103Z,3.50
2019-06-20T12:34:18.571Z,3.20
2019-06-20T12:36:53.981Z,3.10
2019-06-20T12:39:38.651Z,3.40
2019-06-20T12:42:15.050Z,3.40
2019-06-20T12:44:50.815Z,3.37
2019-06-20T12:47:26.779Z,3.10
2019-06-20T12:50:02.178Z,3.40
2019-06-20T12:52:41.322Z,3.03
2019-06-20T12:55:32.192Z,2.90
2019-06-20T12:58:12.284Z,3.40
2019-06-20T13:00:46.975Z,3.07
2019-06-20T13:03:22.984Z,3.60
2019-06-20T13:05:58.512Z,3.03
2019-06-20T13:08:33.930Z,3.60
2019-06-20T13:11:08.470Z,3.07
2019-06-20T13:13:44.407Z,3.57
2019-06-20T13:16:22.414Z,3.20
2019-06-20T13:18:56.309Z,3.70
2019-06-20T13:21:33.704Z,3.10
2019-06-20T13:24:09.432Z,3.30
2019-06-20T13:26:43.907Z,3.73
2019-06-20T13:29:22.463Z,3.37
2019-06-20T13:32:03.887Z,3.33
2019-06-20T13:34:31.977Z,3.20
2019-06-20T13:37:07.414Z,3.03
2019-06-20T13:39:41.698Z,3.30
2019-06-20T13:42:20.358Z,3.27
2019-06-20T13:44:55.028Z,3.50
2019-06-20T13:47:29.836Z,3.80
2019-06-20T13:50:03.589Z,2.70
2019-06-20T13:52:43.552Z,2.93
2019-06-20T13:55:16.569Z,3.23
2019-06-20T13:57:52.711Z,3.60
2019-06-20T14:00:27.794Z,2.90
2019-06-20T14:03:01.573Z,3.10
2019-06-20T14:05:35.559Z,2.90
2019-06-20T14:08:11.612Z,3.07
2019-06-20T14:10:47.672Z,4.10
2019-06-20T14:13:21.717Z,3.47
2019-06-20T14:15:55.894Z,4.20
2019-06-20T14:18:29.854Z,3.40
2019-06-20T14:21:04.835Z,3.10
2019-06-20T14:23:46.167Z,3.10
2019-06-20T14:26:21.103Z,3.07
2019-06-20T14:28:55.796Z,3.33
2019-06-20T14:31:31.453Z,3.20
2019-06-20T14:34:05.499Z,2.93
2019-06-20T14:36:39.255Z,3.27
2019-06-20T14:39:13.175Z,2.80
2019-06-20T14:41:48.599Z,2.90
2019-06-20T14:44:23.456Z,3.00
2019-06-20T14:46:57.481Z,3.00
2019-06-20T14:50:45.539Z,2.83
2019-06-20T14:59:16.665Z,2.80
2019-06-20T15:02:57.812Z,2.70
2019-06-20T15:07:03.206Z,2.63
2019-06-20T15:11:02.811Z,3.10
2019-06-20T15:14:57.259Z,2.90
2019-06-20T15:18:40.761Z,2.80
2019-06-20T15:22:24.019Z,3.10
2019-06-20T15:30:12.921Z,3.10
2019-06-20T15:34:30.335Z,3.30
2019-06-20T15:42:30.841Z,4.40
2019-06-20T15:45:05.296Z,2.83
2019-06-20T15:49:19.287Z,2.60
2019-06-20T15:51:58.804Z,2.47
2019-06-20T15:55:08.666Z,3.00
2019-06-20T15:57:45.744Z,2.40
2019-06-20T16:00:19.827Z,3.03
2019-06-20T16:03:05.885Z,2.83
2019-06-20T16:05:30.548Z,2.70
2019-06-20T16:08:05.439Z,2.67
2019-06-20T16:10:42.612Z,3.03
2019-06-20T16:13:18.239Z,3.93
2019-06-20T16:15:52.795Z,2.30
2019-06-20T16:18:27.386Z,4.10
2019-06-20T16:21:03.992Z,5.53
2019-06-20T16:23:38.662Z,6.47
2019-06-20T16:26:12.424Z,24.90
2019-06-20T16:28:46.609Z,2.60
2019-06-20T16:31:26.821Z,2.20
2019-06-20T16:33:56.941Z,2.10
2019-06-20T16:36:30.913Z,2.97
2019-06-20T16:39:08.659Z,5.97
2019-06-20T16:41:43.170Z,2.30
2019-06-20T16:44:21.705Z,4.83
2019-06-20T16:46:53.975Z,2.63
2019-06-20T16:49:30.236Z,2.30
2019-06-20T16:52:04.526Z,4.30
2019-06-20T16:54:42.869Z,2.23
2019-06-20T16:57:17.802Z,2.47
2019-06-20T16:59:57.855Z,2.30
2019-06-20T17:02:31.874Z,2.63
2019-06-20T17:05:06.107Z,2.43
2019-06-20T17:07:40.502Z,2.43
2019-06-20T17:10:15.037Z,2.50
2019-06-20T17:12:51.611Z,2.20
2019-06-20T17:15:26.300Z,2.33
2019-06-20T17:18:01.271Z,2.43
2019-06-20T17:20:36.621Z,2.97
2019-06-20T17:23:10.674Z,2.67
2019-06-20T17:25:44.770Z,4.60
2019-06-20T17:28:19.666Z,6.80
2019-06-20T17:30:54.536Z,2.57
2019-06-20T17:33:32.289Z,2.50
2019-06-20T17:36:17.717Z,2.43
2019-06-20T17:38:44.657Z,2.43
2019-06-20T17:41:18.741Z,2.70
2019-06-20T17:43:55.856Z,2.73
2019-06-20T17:46:30.399Z,2.77
2019-06-20T17:49:07.372Z,2.50
2019-06-20T17:51:40.945Z,2.80
2019-06-20T17:54:15.076Z,2.83
2019-06-20T17:56:49.612Z,2.97
2019-06-20T17:59:24.121Z,2.90
2019-06-20T18:01:59.462Z,3.23
2019-06-20T18:04:35.199Z,3.27
2019-06-20T18:07:11.607Z,2.70
2019-06-20T18:09:46.880Z,3.30
2019-06-20T18:12:21.272Z,4.00
2019-06-20T18:14:56.424Z,4.10
2019-06-20T18:17:30.716Z,3.10
2019-06-20T18:20:07.459Z,2.47
2019-06-20T18:22:42.335Z,2.90
2019-06-20T18:25:18.567Z,3.47
2019-06-20T18:27:52.791Z,2.90
2019-06-20T18:30:39.903Z,2.97
2019-06-20T18:33:14.229Z,2.80
2019-06-20T18:35:48.436Z,3.00
2019-06-20T18:38:26.516Z,3.20
2019-06-20T18:41:02.278Z,3.13
2019-06-20T18:43:41.893Z,3.23
2019-06-20T18:46:17.247Z,3.03
2019-06-20T18:49:06.433Z,3.20
2019-06-20T18:51:42.751Z,3.30
2019-06-20T18:54:25.736Z,2.80
2019-06-20T18:56:56.172Z,3.10
2019-06-20T18:59:32.827Z,2.83
2019-06-20T19:02:10.052Z,2.80
2019-06-20T19:04:49.501Z,3.40
2019-06-20T19:07:21.131Z,3.67
2019-06-20T19:09:55.971Z,3.17
2019-06-20T19:12:31.697Z,3.13
2019-06-20T19:15:06.349Z,2.97
2019-06-20T19:17:41.917Z,2.77
2019-06-20T19:20:16.453Z,3.20
2019-06-20T19:22:54.196Z,3.50
2019-06-20T19:25:34.373Z,3.30
2019-06-20T19:28:14.007Z,3.00
2019-06-20T19:30:57.306Z,3.77
2019-06-20T19:33:33.685Z,3.17
2019-06-20T19:36:09.055Z,3.13
2019-06-20T19:38:45.155Z,3.13
2019-06-20T19:41:23.003Z,3.37
2019-06-20T19:44:02.758Z,3.13
2019-06-20T19:46:54.974Z,3.17
2019-06-20T19:49:33.692Z,3.27
2019-06-20T19:52:11.238Z,3.33
2019-06-20T19:54:48.219Z,3.30
2019-06-20T19:57:30.088Z,3.10
2019-06-20T20:00:10.408Z,2.93
2019-06-20T20:02:46.694Z,2.83
2019-06-20T20:05:27.807Z,3.30
2019-06-20T20:08:04.053Z,3.10
2019-06-20T20:10:58.029Z,3.40
2019-06-20T20:13:33.604Z,3.40
2019-06-20T20:16:14.171Z,3.70
2019-06-20T20:18:55.018Z,3.30
2019-06-20T20:21:34.313Z,3.40
2019-06-20T20:24:10.159Z,3.23
2019-06-20T20:26:51.609Z,3.60
2019-06-20T20:29:31.717Z,4.00
2019-06-20T20:32:11.680Z,3.40
2019-06-20T20:34:59.140Z,3.03
2019-06-20T20:37:51.702Z,3.37
2019-06-20T20:40:28.349Z,3.87
2019-06-20T20:43:06.709Z,3.67
2019-06-20T20:45:42.970Z,3.30
2019-06-20T20:48:24.806Z,3.43
2019-06-20T20:50:59.926Z,3.33
2019-06-20T20:53:36.640Z,3.10
2019-06-20T20:56:18.765Z,3.67
2019-06-20T20:58:59.325Z,3.73
2019-06-20T21:01:37.907Z,4.00
2019-06-20T21:04:20.237Z,4.13
2019-06-20T21:06:55.774Z,3.43
2019-06-20T21:09:34.869Z,3.73
2019-06-20T21:12:10.133Z,3.40
2019-06-20T21:14:44.160Z,3.40
2019-06-20T21:17:19.446Z,4.00
2019-06-20T21:19:53.984Z,3.73
2019-06-20T21:22:29.074Z,3.63
2019-06-20T21:25:03.808Z,3.80
2019-06-20T21:27:40.855Z,3.43
2019-06-20T21:30:15.046Z,3.97
2019-06-20T21:32:50.139Z,3.30
2019-06-20T21:35:25.042Z,3.67
2019-06-20T21:37:59.061Z,3.90
2019-06-20T21:40:33.067Z,3.60
2019-06-20T21:43:07.226Z,4.10
2019-06-20T21:45:43.082Z,4.00
2019-06-20T21:48:17.712Z,3.77
2019-06-20T21:50:52.332Z,4.10
2019-06-20T21:53:26.641Z,4.13
2019-06-20T21:56:01.584Z,4.07
2019-06-20T21:58:45.550Z,3.87
2019-06-20T22:01:22.216Z,3.80
2019-06-20T22:03:58.347Z,3.77
2019-06-20T22:06:33.373Z,3.77
2019-06-20T22:09:10.149Z,4.33
2019-06-20T22:11:45.025Z,3.93
2019-06-20T22:14:19.355Z,4.90
2019-06-20T22:16:54.166Z,3.67
2019-06-20T22:19:28.315Z,4.00
2019-06-20T22:22:03.428Z,3.87
2019-06-20T22:24:38.332Z,3.80
2019-06-20T22:27:13.342Z,3.97
2019-06-20T22:29:48.342Z,4.17
2019-06-20T22:32:22.348Z,4.00
2019-06-20T22:34:57.196Z,4.20
2019-06-20T22:37:31.984Z,4.20
2019-06-20T22:40:06.334Z,3.70
2019-06-20T22:42:40.071Z,3.80
2019-06-20T22:45:15.233Z,4.23
2019-06-20T22:47:50.296Z,4.00
2019-06-20T22:50:24.320Z,4.40
2019-06-20T22:52:58.544Z,4.10
2019-06-20T22:55:32.940Z,3.93
2019-06-20T22:58:09.579Z,3.93
2019-06-20T23:00:43.448Z,4.00
2019-06-20T23:03:16.694Z,4.10
2019-06-20T23:05:50.751Z,4.00
2019-06-20T23:08:26.348Z,3.83
2019-06-20T23:11:00.404Z,4.23
2019-06-20T23:13:36.283Z,3.97
2019-06-20T23:16:10.494Z,3.90
2019-06-20T23:18:45.071Z,3.90
2019-06-20T23:21:19.052Z,3.80
2019-06-20T23:23:52.454Z,3.50
2019-06-20T23:26:26.446Z,4.07
2019-06-20T23:29:17.168Z,3.97
2019-06-20T23:31:50.711Z,3.97
2019-06-20T23:34:24.645Z,3.80
2019-06-20T23:37:12.380Z,4.03
2019-06-20T23:39:34.947Z,3.90
2019-06-20T23:42:09.191Z,4.10
2019-06-20T23:44:42.169Z,4.30
2019-06-20T23:47:15.481Z,5.07
2019-06-20T23:49:48.570Z,4.50
2019-06-20T23:52:26.699Z,4.33
2019-06-20T23:55:00.413Z,4.80
2019-06-20T23:57:34.508Z,4.57
